Aérodrome :
LOGIN :

S'inscrire | Disclaimer

   EN    FR    IT 

 










Légende :    VFR   VFR Marginal   IFR   IFR Intensif   IFR Très Intensif
Visi : 
Plafond : 
>= 8 km
>= 3000ft
5 à 8 km
1000 à 3000 ft
1500m à 5 km
500 à 1000 ft
800 à 1500m
200 à 500 ft
< 800m
< 200 ft
Symboles :   Orages  Brouillard  Fortes neiges  Fortes précipitations  Vent > 20 kt
SIGMETs :   Divers  Orages  Givrage  Turbulence  Onde Orograph.  Cendres Volcan.






- Altitude de l'aérodrome : 357 ft
- Code IATA : TUF


LFOT - Tours

DERNIER METAR :
  • 032000Z AUTO 19006KT 160V220 9999 ///CB 19/13 Q1001 TEMPO 32015G30KT 3000 -TSRAGR

METARs EXPIRÉS :
  • 031930Z AUTO 17008KT 9999 ///CB 20/13 Q1001 TEMPO 32015G30KT 3000 -TSRAGR
  • 031900Z AUTO 16007KT 130V190 9999 ///CB 21/13 Q1001 TEMPO 32015G30KT 3000 -TSRAGR
  • 031830Z AUTO 19008KT CAVOK 22/13 Q1001 TEMPO 32015G30KT 3000 -TSRAGR BKN040CB
  • 031800Z AUTO 22004KT 130V280 9999 ///CB 24/12 Q1001 TEMPO 32015G30KT 3000 -TSRAGR
  • 031730Z AUTO 26005KT 220V290 CAVOK 24/10 Q1001 TEMPO 32015G30KT 3000 -TSRAGR BKN040CB

TAF TAF LFOT
Valide du 03 à 18h jusqu'au 04 à 18h UTC


031700Z 0318/0418 17005KT CAVOK
TEMPO 0318/0412 4000 SHRA SCT050CB BKN060
PROB40
TEMPO 0318/0405 32015G30KT 3000 -TSRAGR BKN040CB
TEMPO 0401/0408 BKN012
BECMG 0409/0412 SCT030
TEMPO 0412/0418 8000 -SHRA SCT045CB



MET'MAP, la Météo Aéronautique d'un coup d'oeil ! - Copyright ORBIFLY Décembre 2007 - Disclaimer

ORBIFLY MET'MAP TEAM :

Programmation & Développement : Alexandra Zaïnal
Sur une idée originale de : Baudouin d'Aumeries
Assistance à la programmation : Marc-Olivier Méhu
Soutien technique & logistique : Manuel Goepfert

Contact : metmap@orbifly.com




SOURCES & CREDITS :

   NOAA